createdAt,value
2023-01-30T00:01:19.065Z,5.70
2023-01-30T00:04:21.788Z,5.93
2023-01-30T00:07:24.394Z,5.85
2023-01-30T00:10:26.967Z,6.00
2023-01-30T00:13:29.731Z,5.75
2023-01-30T00:16:32.451Z,5.97
2023-01-30T00:19:35.077Z,6.00
2023-01-30T00:22:37.934Z,5.90
2023-01-30T00:25:41.056Z,5.83
2023-01-30T00:28:43.783Z,5.70
2023-01-30T00:31:46.528Z,5.70
2023-01-30T00:34:49.154Z,5.82
2023-01-30T00:37:51.737Z,6.00
2023-01-30T00:40:54.809Z,5.57
2023-01-30T00:44:16.267Z,5.95
2023-01-30T00:47:18.859Z,5.57
2023-01-30T00:50:21.547Z,5.43
2023-01-30T00:53:24.438Z,5.85
2023-01-30T00:56:27.288Z,5.90
2023-01-30T00:59:30.082Z,5.50
2023-01-30T01:02:32.722Z,5.07
2023-01-30T01:05:35.786Z,5.63
2023-01-30T01:08:38.566Z,5.80
2023-01-30T01:11:41.331Z,5.53
2023-01-30T01:14:43.984Z,5.18
2023-01-30T01:17:47.006Z,5.55
2023-01-30T01:20:49.856Z,5.07
2023-01-30T01:23:54.223Z,5.80
2023-01-30T01:26:56.930Z,5.07
2023-01-30T01:30:02.111Z,4.88
2023-01-30T01:33:05.629Z,5.53
2023-01-30T01:36:08.924Z,4.97
2023-01-30T01:39:11.590Z,5.05
2023-01-30T01:42:14.259Z,5.30
2023-01-30T01:45:25.071Z,4.80
2023-01-30T01:48:28.915Z,5.30
2023-01-30T01:51:52.906Z,5.38
2023-01-30T01:55:06.362Z,5.18
2023-01-30T01:58:15.689Z,5.30
2023-01-30T02:01:19.227Z,5.30
2023-01-30T02:04:42.441Z,4.72
2023-01-30T02:07:55.007Z,5.60
2023-01-30T02:11:34.996Z,4.93
2023-01-30T02:14:40.618Z,5.30
2023-01-30T02:17:43.533Z,5.53
2023-01-30T02:21:17.190Z,5.25
2023-01-30T02:24:30.050Z,5.10
2023-01-30T02:28:05.476Z,4.90
2023-01-30T02:31:17.583Z,4.90
2023-01-30T02:34:41.792Z,5.43
2023-01-30T02:37:55.613Z,4.85
2023-01-30T02:41:24.841Z,4.70
2023-01-30T02:44:34.580Z,4.78
2023-01-30T02:47:47.277Z,4.43
2023-01-30T02:50:57.857Z,4.40
2023-01-30T02:54:00.858Z,4.97
2023-01-30T02:57:03.733Z,4.60
2023-01-30T03:00:07.032Z,4.32
2023-01-30T03:03:27.149Z,4.73
2023-01-30T03:06:52.757Z,5.05
2023-01-30T03:10:06.770Z,4.57
2023-01-30T03:13:26.648Z,4.50
2023-01-30T03:16:39.103Z,4.28
2023-01-30T03:19:42.915Z,4.80
2023-01-30T03:22:47.324Z,4.63
2023-01-30T03:25:50.244Z,4.45
2023-01-30T03:28:53.823Z,4.60
2023-01-30T03:31:56.760Z,4.30
2023-01-30T03:34:59.464Z,4.60
2023-01-30T03:38:02.908Z,4.63
2023-01-30T03:41:06.197Z,4.40
2023-01-30T03:44:09.962Z,4.80
2023-01-30T03:47:12.636Z,4.47
2023-01-30T03:50:16.003Z,4.60
2023-01-30T03:53:19.437Z,4.82
2023-01-30T03:56:22.201Z,4.85
2023-01-30T03:59:25.258Z,4.70
2023-01-30T04:02:35.558Z,5.05
2023-01-30T04:05:38.370Z,5.10
2023-01-30T04:08:43.632Z,4.70
2023-01-30T04:11:56.160Z,4.55
2023-01-30T04:14:58.894Z,4.70
2023-01-30T04:18:37.188Z,4.20
2023-01-30T04:21:50.223Z,4.87
2023-01-30T04:24:52.816Z,4.90
2023-01-30T04:27:56.243Z,4.80
2023-01-30T04:31:04.573Z,4.75
2023-01-30T04:34:19.485Z,5.35
2023-01-30T04:37:22.206Z,4.70
2023-01-30T04:40:25.342Z,4.68
2023-01-30T04:43:29.278Z,4.68
2023-01-30T04:46:49.681Z,4.70
2023-01-30T04:49:52.634Z,4.55
2023-01-30T04:52:55.221Z,4.90
2023-01-30T04:55:58.346Z,4.70
2023-01-30T04:59:01.095Z,4.45
2023-01-30T05:02:08.774Z,4.85
2023-01-30T05:05:11.635Z,4.30
2023-01-30T05:08:15.324Z,4.80
2023-01-30T05:11:18.689Z,5.20
2023-01-30T05:14:21.442Z,4.85
2023-01-30T05:17:24.050Z,4.40
2023-01-30T05:20:26.651Z,4.78
2023-01-30T05:23:29.229Z,4.80
2023-01-30T05:26:32.428Z,4.95
2023-01-30T05:29:35.230Z,4.60
2023-01-30T05:32:37.831Z,4.45
2023-01-30T05:35:47.123Z,5.00
2023-01-30T05:38:49.978Z,4.97
2023-01-30T05:41:52.872Z,5.07
2023-01-30T05:44:55.900Z,4.75
2023-01-30T05:48:01.985Z,4.95
2023-01-30T05:51:04.864Z,4.72
2023-01-30T05:54:07.499Z,4.70
2023-01-30T05:57:10.178Z,4.75
2023-01-30T06:00:13.346Z,5.03
2023-01-30T06:03:16.069Z,5.10
2023-01-30T06:06:19.622Z,4.43
2023-01-30T06:09:22.153Z,4.63
2023-01-30T06:12:26.494Z,4.45
2023-01-30T06:15:29.216Z,4.45
2023-01-30T06:18:31.963Z,4.53
2023-01-30T06:21:35.011Z,4.25
2023-01-30T06:24:37.624Z,5.00
2023-01-30T06:27:40.431Z,4.45
2023-01-30T06:30:43.136Z,5.53
2023-01-30T06:33:45.720Z,4.45
2023-01-30T06:36:48.358Z,4.65
2023-01-30T06:39:51.388Z,4.50
2023-01-30T06:42:54.083Z,4.32
2023-01-30T06:45:59.228Z,4.30
2023-01-30T06:49:01.966Z,4.57
2023-01-30T06:52:04.740Z,3.70
2023-01-30T06:55:08.715Z,4.53
2023-01-30T06:58:14.503Z,4.55
2023-01-30T07:01:19.340Z,4.38
2023-01-30T07:04:22.332Z,4.20
2023-01-30T07:07:25.166Z,4.28
2023-01-30T07:10:29.636Z,4.20
2023-01-30T07:13:32.751Z,4.43
2023-01-30T07:16:35.511Z,4.47
2023-01-30T07:19:41.577Z,4.35
2023-01-30T07:23:03.410Z,4.25
2023-01-30T07:26:07.355Z,4.63
2023-01-30T07:29:10.474Z,4.38
2023-01-30T07:32:21.550Z,4.38
2023-01-30T07:35:28.178Z,4.40
2023-01-30T07:38:31.697Z,4.38
2023-01-30T07:41:34.377Z,3.93
2023-01-30T07:44:37.202Z,4.25
2023-01-30T07:47:39.951Z,4.60
2023-01-30T07:50:43.298Z,4.20
2023-01-30T07:54:00.032Z,4.22
2023-01-30T07:57:02.716Z,4.47
2023-01-30T08:00:06.826Z,4.32
2023-01-30T08:03:17.596Z,4.22
2023-01-30T08:06:21.372Z,4.63
2023-01-30T08:09:25.824Z,4.53
2023-01-30T08:12:29.291Z,3.80
2023-01-30T08:15:33.847Z,4.65
2023-01-30T08:18:38.799Z,4.30
2023-01-30T08:21:41.909Z,4.28
2023-01-30T08:24:44.559Z,4.18
2023-01-30T08:27:47.455Z,4.33
2023-01-30T08:30:52.656Z,4.60
2023-01-30T08:33:55.299Z,4.28
2023-01-30T08:36:59.622Z,4.22
2023-01-30T08:40:04.028Z,4.20
2023-01-30T08:43:07.428Z,4.23
2023-01-30T08:46:11.644Z,4.60
2023-01-30T08:49:14.772Z,4.47
2023-01-30T08:52:17.823Z,4.50
2023-01-30T08:55:21.731Z,4.25
2023-01-30T08:58:25.910Z,4.60
2023-01-30T09:01:29.159Z,4.45
2023-01-30T09:04:34.115Z,4.30
2023-01-30T09:07:37.233Z,5.10
2023-01-30T09:10:42.544Z,4.47
2023-01-30T09:13:49.787Z,4.47
2023-01-30T09:16:55.965Z,4.43
2023-01-30T09:19:58.749Z,4.38
2023-01-30T09:23:02.256Z,4.05
2023-01-30T09:26:06.114Z,3.90
2023-01-30T09:29:08.740Z,3.70
2023-01-30T09:32:12.122Z,4.88
2023-01-30T09:35:15.066Z,4.25
2023-01-30T09:38:20.488Z,4.05
2023-01-30T09:41:32.053Z,4.00
2023-01-30T09:44:57.714Z,4.30
2023-01-30T09:48:18.367Z,4.20
2023-01-30T09:51:27.798Z,4.32
2023-01-30T09:54:37.561Z,4.60
2023-01-30T09:57:42.590Z,4.22
2023-01-30T10:00:47.297Z,4.00
2023-01-30T10:04:24.818Z,4.25
2023-01-30T10:07:43.624Z,4.53
2023-01-30T10:11:00.863Z,4.53
2023-01-30T10:14:43.575Z,4.30
2023-01-30T10:18:14.422Z,4.70
2023-01-30T10:21:44.114Z,4.20
2023-01-30T10:25:15.727Z,4.30
2023-01-30T10:28:29.842Z,4.00
2023-01-30T10:31:46.961Z,4.50
2023-01-30T10:34:52.998Z,3.80
2023-01-30T10:38:13.799Z,4.30
2023-01-30T10:41:36.777Z,4.13
2023-01-30T10:44:44.254Z,4.47
2023-01-30T10:47:49.691Z,4.20
2023-01-30T10:51:03.511Z,3.93
2023-01-30T10:54:17.448Z,4.45
2023-01-30T10:57:29.238Z,4.25
2023-01-30T11:00:59.068Z,4.40
2023-01-30T11:04:07.499Z,3.83
2023-01-30T11:07:11.009Z,4.00
2023-01-30T11:10:22.574Z,4.30
2023-01-30T11:13:31.933Z,4.18
2023-01-30T11:17:03.247Z,4.10
2023-01-30T11:20:22.844Z,4.35
2023-01-30T11:23:41.437Z,4.53
2023-01-30T11:26:48.494Z,4.45
2023-01-30T11:30:04.614Z,4.85
2023-01-30T11:33:17.936Z,4.78
2023-01-30T11:36:27.347Z,4.03
2023-01-30T11:39:30.372Z,4.20
2023-01-30T11:42:33.359Z,4.50
2023-01-30T11:45:41.776Z,4.38
2023-01-30T11:49:12.569Z,5.03
2023-01-30T11:52:27.916Z,4.78
2023-01-30T11:55:37.079Z,4.53
2023-01-30T11:58:42.023Z,4.60
2023-01-30T12:01:45.034Z,4.55
2023-01-30T12:04:51.351Z,5.00
2023-01-30T12:08:13.038Z,4.53
2023-01-30T12:11:36.752Z,4.10
2023-01-30T12:14:46.069Z,4.07
2023-01-30T12:18:05.563Z,4.15
2023-01-30T12:21:40.856Z,4.63
2023-01-30T12:25:03.458Z,4.10
2023-01-30T12:28:22.500Z,4.57
2023-01-30T12:31:37.553Z,4.13
2023-01-30T12:34:43.903Z,4.88
2023-01-30T12:37:53.995Z,4.35
2023-01-30T12:41:15.532Z,4.15
2023-01-30T12:44:29.497Z,4.27
2023-01-30T12:47:40.970Z,4.47
2023-01-30T12:51:04.638Z,4.55
2023-01-30T12:54:29.912Z,4.10
2023-01-30T12:57:45.817Z,4.10
2023-01-30T13:01:10.197Z,4.17
2023-01-30T13:04:56.710Z,4.05
2023-01-30T13:08:10.390Z,4.05
2023-01-30T13:11:34.649Z,4.03
2023-01-30T13:14:54.792Z,4.78
2023-01-30T13:18:18.574Z,4.20
2023-01-30T13:21:35.529Z,4.43
2023-01-30T13:24:50.625Z,3.85
2023-01-30T13:28:02.381Z,4.20
2023-01-30T13:31:09.868Z,4.40
2023-01-30T13:34:31.094Z,4.40
2023-01-30T13:37:34.677Z,4.65
2023-01-30T13:40:43.331Z,4.40
2023-01-30T13:43:53.060Z,4.32
2023-01-30T13:46:58.169Z,4.07
2023-01-30T13:50:17.848Z,3.87
2023-01-30T13:53:35.204Z,4.13
2023-01-30T13:56:50.949Z,4.10
2023-01-30T14:00:05.513Z,4.70
2023-01-30T14:03:16.698Z,4.60
2023-01-30T14:06:36.375Z,4.30
2023-01-30T14:10:12.238Z,4.97
2023-01-30T14:13:25.804Z,4.40
2023-01-30T14:16:53.595Z,4.65
2023-01-30T14:20:01.170Z,4.20
2023-01-30T14:23:22.231Z,4.63
2023-01-30T14:26:52.596Z,4.38
2023-01-30T14:30:58.615Z,4.35
2023-01-30T14:34:01.316Z,4.85
2023-01-30T14:37:05.217Z,5.22
2023-01-30T14:40:25.635Z,5.03
2023-01-30T14:43:38.517Z,4.47
2023-01-30T14:46:54.398Z,4.60
2023-01-30T14:50:01.136Z,3.90
2023-01-30T14:53:04.270Z,4.35
2023-01-30T14:56:07.396Z,4.27
2023-01-30T14:59:21.498Z,4.20
2023-01-30T15:02:31.901Z,4.50
2023-01-30T15:05:39.189Z,4.10
2023-01-30T15:08:44.437Z,3.80
2023-01-30T15:12:12.734Z,4.47
2023-01-30T15:15:31.706Z,4.40
2023-01-30T15:19:06.264Z,4.40
2023-01-30T15:22:30.629Z,4.05
2023-01-30T15:25:40.921Z,4.03
2023-01-30T15:29:03.335Z,4.20
2023-01-30T15:32:24.296Z,4.45
2023-01-30T15:35:28.373Z,4.35
2023-01-30T15:38:33.907Z,4.20
2023-01-30T15:41:41.065Z,4.20
2023-01-30T15:45:01.587Z,4.50
2023-01-30T15:48:25.650Z,4.20
2023-01-30T15:51:31.111Z,4.00
2023-01-30T15:54:34.172Z,4.38
2023-01-30T15:57:39.328Z,4.47
2023-01-30T16:00:47.735Z,5.57
2023-01-30T16:03:51.141Z,6.00
2023-01-30T16:06:55.916Z,6.57
2023-01-30T16:10:07.153Z,6.13
2023-01-30T16:13:10.542Z,5.47
2023-01-30T16:16:19.179Z,5.53
2023-01-30T16:19:29.662Z,5.30
2023-01-30T16:22:34.383Z,5.47
2023-01-30T16:25:37.202Z,4.80
2023-01-30T16:28:41.103Z,4.72
2023-01-30T16:31:47.878Z,5.40
2023-01-30T16:34:50.782Z,5.32
2023-01-30T16:37:54.869Z,4.70
2023-01-30T16:40:59.893Z,4.68
2023-01-30T16:44:20.808Z,4.63
2023-01-30T16:47:27.375Z,5.17
2023-01-30T16:50:30.250Z,4.72
2023-01-30T16:53:34.090Z,4.63
2023-01-30T16:56:37.084Z,5.22
2023-01-30T16:59:40.571Z,5.10
2023-01-30T17:02:51.784Z,5.57
2023-01-30T17:05:54.956Z,4.90
2023-01-30T17:08:59.013Z,4.90
2023-01-30T17:12:21.973Z,5.25
2023-01-30T17:15:28.589Z,4.78
2023-01-30T17:18:31.777Z,4.93
2023-01-30T17:21:45.213Z,4.85
2023-01-30T17:24:48.057Z,5.00
2023-01-30T17:27:53.245Z,4.80
2023-01-30T17:30:56.965Z,4.90
2023-01-30T17:34:01.908Z,5.00
2023-01-30T17:37:06.988Z,4.80
2023-01-30T17:40:33.141Z,4.80
2023-01-30T17:43:37.182Z,5.20
2023-01-30T17:46:46.052Z,4.80
2023-01-30T17:49:50.077Z,5.00
2023-01-30T17:52:53.773Z,5.20
2023-01-30T17:55:58.474Z,4.68
2023-01-30T17:59:02.973Z,4.82
2023-01-30T18:02:14.750Z,4.65
2023-01-30T18:05:19.212Z,4.60
2023-01-30T18:08:22.672Z,4.93
2023-01-30T18:11:26.431Z,4.82
2023-01-30T18:14:33.345Z,4.95
2023-01-30T18:17:43.894Z,5.22
2023-01-30T18:20:52.134Z,4.80
2023-01-30T18:23:57.479Z,4.70
2023-01-30T18:27:03.599Z,4.80
2023-01-30T18:30:08.401Z,4.78
2023-01-30T18:33:15.989Z,4.32
2023-01-30T18:36:21.101Z,4.67
2023-01-30T18:39:25.589Z,4.40
2023-01-30T18:42:30.792Z,4.07
2023-01-30T18:45:35.242Z,4.50
2023-01-30T18:48:39.810Z,5.03
2023-01-30T18:51:47.153Z,5.00
2023-01-30T18:54:51.793Z,4.55
2023-01-30T18:57:56.476Z,4.85
2023-01-30T19:01:00.736Z,4.75
2023-01-30T19:04:07.755Z,4.30
2023-01-30T19:07:14.372Z,4.60
2023-01-30T19:10:19.168Z,4.63
2023-01-30T19:13:33.578Z,4.80
2023-01-30T19:16:39.502Z,4.05
2023-01-30T19:19:43.883Z,4.55
2023-01-30T19:22:49.384Z,4.87
2023-01-30T19:25:59.943Z,5.35
2023-01-30T19:29:04.430Z,4.68
2023-01-30T19:32:10.744Z,4.85
2023-01-30T19:35:15.139Z,4.45
2023-01-30T19:38:19.650Z,3.80
2023-01-30T19:41:29.457Z,4.22
2023-01-30T19:44:34.835Z,4.50
2023-01-30T19:47:39.734Z,4.82
2023-01-30T19:50:43.843Z,4.40
2023-01-30T19:53:53.374Z,4.63
2023-01-30T19:57:00.039Z,4.47
2023-01-30T20:00:06.586Z,4.70
2023-01-30T20:03:13.519Z,4.55
2023-01-30T20:06:21.837Z,4.72
2023-01-30T20:09:26.153Z,4.37
2023-01-30T20:12:32.602Z,4.15
2023-01-30T20:15:40.131Z,4.70
2023-01-30T20:18:46.681Z,4.28
2023-01-30T20:21:51.114Z,4.25
2023-01-30T20:24:56.473Z,5.23
2023-01-30T20:28:00.712Z,4.15
2023-01-30T20:31:28.915Z,4.55
2023-01-30T20:34:36.082Z,4.88
2023-01-30T20:37:40.067Z,4.30
2023-01-30T20:40:44.439Z,4.63
2023-01-30T20:43:51.684Z,4.63
2023-01-30T20:46:57.203Z,4.40
2023-01-30T20:50:02.701Z,4.25
2023-01-30T20:53:06.985Z,4.20
2023-01-30T20:56:13.319Z,4.27
2023-01-30T20:59:19.991Z,5.00
2023-01-30T21:02:23.584Z,4.85
2023-01-30T21:05:30.174Z,4.70
2023-01-30T21:08:36.998Z,4.60
2023-01-30T21:11:40.578Z,4.80
2023-01-30T21:14:43.821Z,4.38
2023-01-30T21:17:48.922Z,4.10
2023-01-30T21:20:52.286Z,4.60
2023-01-30T21:23:58.202Z,4.85
2023-01-30T21:27:02.967Z,4.60
2023-01-30T21:30:10.541Z,4.50
2023-01-30T21:33:13.997Z,5.00
2023-01-30T21:36:17.218Z,5.13
2023-01-30T21:39:39.313Z,4.80
2023-01-30T21:43:00.983Z,4.47
2023-01-30T21:46:05.199Z,4.78
2023-01-30T21:49:08.223Z,4.68
2023-01-30T21:52:10.961Z,5.03
2023-01-30T21:55:13.659Z,4.30
2023-01-30T21:58:16.951Z,4.83
2023-01-30T22:01:19.684Z,4.80
2023-01-30T22:04:22.516Z,4.63
2023-01-30T22:07:25.143Z,4.97
2023-01-30T22:10:28.391Z,4.65
2023-01-30T22:13:33.684Z,4.77
2023-01-30T22:16:36.350Z,5.03
2023-01-30T22:19:39.700Z,4.90
2023-01-30T22:22:42.409Z,5.10
2023-01-30T22:25:53.327Z,4.50
2023-01-30T22:28:57.455Z,4.77
2023-01-30T22:32:00.589Z,4.40
2023-01-30T22:35:03.406Z,4.28
2023-01-30T22:38:06.006Z,4.82
2023-01-30T22:41:14.610Z,4.90
2023-01-30T22:44:17.241Z,4.70
2023-01-30T22:47:20.008Z,4.53
2023-01-30T22:50:22.663Z,4.50
2023-01-30T22:53:25.318Z,4.90
2023-01-30T22:56:33.939Z,4.85
2023-01-30T22:59:36.901Z,4.63
2023-01-30T23:02:39.734Z,5.10
2023-01-30T23:05:42.367Z,5.28
2023-01-30T23:08:47.695Z,4.72
2023-01-30T23:12:12.258Z,5.00
2023-01-30T23:15:14.954Z,4.87
2023-01-30T23:18:56.364Z,5.32
2023-01-30T23:21:59.036Z,5.15
2023-01-30T23:25:01.689Z,4.93
2023-01-30T23:28:04.575Z,5.25
2023-01-30T23:31:09.680Z,5.17
2023-01-30T23:34:15.016Z,4.70
2023-01-30T23:37:17.698Z,4.80
2023-01-30T23:40:20.741Z,5.35
2023-01-30T23:43:23.329Z,5.05
2023-01-30T23:46:28.677Z,5.43
2023-01-30T23:49:31.259Z,5.30
2023-01-30T23:52:34.088Z,4.88
2023-01-30T23:55:36.793Z,5.78
2023-01-30T23:58:41.537Z,5.30
